Airfield :
LOGIN :

Register | Disclaimer

   EN    FR    IT 

 










Legend :    VFR   Marginal VFR   IFR   Intensive IFR   Very Intensive IFR
Visi :
Ceiling :
>= 8 km
>= 3000ft
5 to 8 km
1000 to 3000 ft
1500m to 5 km
500 to 1000 ft
800 to 1500m
200 to 500 ft
< 800m
< 200 ft
Symbols :   Thunderstorms  Fog  Heavy snow  Heavy precipitations  Wind > 20 kt
SIGMETs :     Misc.  Thunderstorms  Icing  Turbulence  Mountain Waves  Volcanic Ashes






- Airport Elevation : 463 ft
- IATA code : SZY
- AIRPORT CLOSED.


EPSY - Szczytno

CURRENT METAR :
  • 080730Z 20002KT 9999 BKN031 M02/M05 Q1044

EXPIRED METARs :
  • 080700Z VRB02KT 9999 BKN031 M02/M05 Q1044
  • 080630Z VRB01KT 9999 OVC031 M02/M05 Q1044
  • 080600Z 29003KT 250V330 9999 OVC029 M02/M05 Q1044
  • 080530Z VRB02KT 9999 OVC030 M02/M05 Q1044
  • 080500Z VRB02KT 9999 OVC030 M02/M05 Q1044

TAF TAF EPSY
Valid from the 08 at 06:00 until the 08 at 15:00 UTC


080530Z 0806/0815 VRB02KT 9999 BKN027
BECMG 0807/0809 20008KT



MET'MAP, your aeronautical weather chart ! - Copyright ORBIFLY December 2007 - Disclaimer

ORBIFLY MET'MAP TEAM :

Programming & Development : Alexandra Zaïnal
Original concept : Baudouin d'Aumeries
Technical & hardware support : Manuel Goepfert
Assistance : Marc-Olivier Méhu




SOURCES & CREDITS :

   NOAA